createdAt,value
2022-11-22T00:01:23.395Z,7.73
2022-11-22T00:03:51.750Z,10.60
2022-11-22T00:06:20.112Z,7.00
2022-11-22T00:08:48.423Z,6.07
2022-11-22T00:11:16.813Z,8.23
2022-11-22T00:13:45.132Z,7.43
2022-11-22T00:16:14.816Z,8.70
2022-11-22T00:18:43.408Z,6.00
2022-11-22T00:21:11.767Z,6.97
2022-11-22T00:23:40.472Z,7.30
2022-11-22T00:26:12.072Z,8.23
2022-11-22T00:28:40.820Z,7.70
2022-11-22T00:31:09.167Z,6.10
2022-11-22T00:33:38.856Z,6.13
2022-11-22T00:36:07.351Z,5.03
2022-11-22T00:38:35.671Z,5.37
2022-11-22T00:41:04.045Z,6.17
2022-11-22T00:43:32.670Z,5.73
2022-11-22T00:46:01.462Z,5.37
2022-11-22T00:48:30.090Z,6.07
2022-11-22T00:51:00.049Z,7.00
2022-11-22T00:53:28.359Z,5.77
2022-11-22T00:55:56.679Z,5.67
2022-11-22T00:58:24.980Z,5.63
2022-11-22T01:00:56.497Z,6.90
2022-11-22T01:03:26.022Z,7.97
2022-11-22T01:05:54.619Z,8.03
2022-11-22T01:08:24.635Z,6.27
2022-11-22T01:10:58.407Z,8.43
2022-11-22T01:13:28.092Z,5.73
2022-11-22T01:16:01.404Z,4.03
2022-11-22T01:18:30.390Z,8.00
2022-11-22T01:20:59.378Z,5.57
2022-11-22T01:23:29.107Z,4.77
2022-11-22T01:25:57.604Z,5.37
2022-11-22T01:28:26.188Z,6.03
2022-11-22T01:30:55.552Z,4.83
2022-11-22T01:33:23.932Z,4.03
2022-11-22T01:35:54.224Z,7.37
2022-11-22T01:38:22.846Z,5.27
2022-11-22T01:40:52.923Z,7.33
2022-11-22T01:43:23.518Z,5.50
2022-11-22T01:45:54.939Z,6.30
2022-11-22T01:48:37.731Z,7.53
2022-11-22T01:51:15.798Z,6.37
2022-11-22T01:53:44.690Z,5.80
2022-11-22T01:56:18.434Z,6.90
2022-11-22T01:58:51.589Z,8.03
2022-11-22T02:01:20.521Z,7.77
2022-11-22T02:03:52.931Z,4.43
2022-11-22T02:06:22.667Z,7.40
2022-11-22T02:09:00.083Z,6.27
2022-11-22T02:11:34.079Z,5.63
2022-11-22T02:14:04.707Z,8.33
2022-11-22T02:16:35.563Z,6.50
2022-11-22T02:19:05.072Z,7.03
2022-11-22T02:21:34.094Z,8.70
2022-11-22T02:24:13.317Z,11.97
2022-11-22T02:26:43.156Z,6.27
2022-11-22T02:29:12.887Z,6.83
2022-11-22T02:31:44.530Z,5.97
2022-11-22T02:34:14.423Z,7.87
2022-11-22T02:36:48.559Z,7.53
2022-11-22T02:39:23.715Z,6.30
2022-11-22T02:41:54.990Z,6.57
2022-11-22T02:44:24.387Z,7.87
2022-11-22T02:46:56.509Z,7.27
2022-11-22T02:49:26.680Z,11.13
2022-11-22T02:51:55.323Z,5.20
2022-11-22T02:54:23.669Z,5.67
2022-11-22T02:56:53.251Z,7.27
2022-11-22T02:59:21.843Z,6.43
2022-11-22T03:01:50.677Z,5.20
2022-11-22T03:04:25.533Z,8.73
2022-11-22T03:06:56.122Z,6.83
2022-11-22T03:09:25.512Z,8.87
2022-11-22T03:11:55.750Z,7.83
2022-11-22T03:14:24.222Z,6.53
2022-11-22T03:16:53.451Z,7.17
2022-11-22T03:19:22.286Z,6.87
2022-11-22T03:21:51.346Z,7.10
2022-11-22T03:24:20.484Z,7.30
2022-11-22T03:26:50.167Z,7.67
2022-11-22T03:29:20.233Z,9.17
2022-11-22T03:31:48.634Z,7.23
2022-11-22T03:34:17.158Z,7.87
2022-11-22T03:36:45.975Z,5.50
2022-11-22T03:39:14.286Z,8.03
2022-11-22T03:41:42.879Z,8.67
2022-11-22T03:44:11.337Z,9.40
2022-11-22T03:46:41.125Z,9.87
2022-11-22T03:49:09.402Z,6.07
2022-11-22T03:51:37.682Z,8.93
2022-11-22T03:54:06.581Z,8.00
2022-11-22T03:56:34.875Z,8.27
2022-11-22T03:59:03.287Z,10.57
2022-11-22T04:01:31.988Z,8.23
2022-11-22T04:04:01.741Z,9.57
2022-11-22T04:06:30.055Z,6.80
2022-11-22T04:08:58.405Z,6.90
2022-11-22T04:11:26.878Z,8.07
2022-11-22T04:14:12.883Z,5.70
2022-11-22T04:16:41.417Z,6.73
2022-11-22T04:19:11.364Z,8.67
2022-11-22T04:21:38.726Z,7.43
2022-11-22T04:24:27.546Z,9.40
2022-11-22T04:26:56.823Z,9.53
2022-11-22T04:29:25.917Z,8.03
2022-11-22T04:32:11.763Z,6.37
2022-11-22T04:34:41.544Z,9.40
2022-11-22T04:37:09.909Z,7.23
2022-11-22T04:39:38.431Z,8.43
2022-11-22T04:42:24.683Z,8.53
2022-11-22T04:44:53.069Z,6.33
2022-11-22T04:47:38.615Z,8.47
2022-11-22T04:50:24.134Z,8.17
2022-11-22T04:52:55.144Z,7.57
2022-11-22T04:55:24.017Z,6.03
2022-11-22T04:57:58.868Z,7.63
2022-11-22T05:00:29.025Z,7.10
2022-11-22T05:02:57.654Z,6.00
2022-11-22T05:05:28.350Z,6.80
2022-11-22T05:07:56.949Z,7.17
2022-11-22T05:10:27.074Z,6.90
2022-11-22T05:12:57.187Z,7.27
2022-11-22T05:15:25.638Z,7.47
2022-11-22T05:17:54.256Z,7.03
2022-11-22T05:20:22.562Z,6.70
2022-11-22T05:23:09.867Z,6.20
2022-11-22T05:25:38.228Z,7.17
2022-11-22T05:28:06.783Z,5.73
2022-11-22T05:30:35.169Z,8.50
2022-11-22T05:33:03.577Z,7.97
2022-11-22T05:35:32.227Z,5.87
2022-11-22T05:38:02.253Z,7.73
2022-11-22T05:40:30.590Z,7.40
2022-11-22T05:42:59.477Z,7.03
2022-11-22T05:45:28.630Z,7.67
2022-11-22T05:47:57.872Z,7.20
2022-11-22T05:50:26.545Z,10.23
2022-11-22T05:53:03.899Z,9.27
2022-11-22T05:55:32.599Z,8.37
2022-11-22T05:58:02.182Z,8.80
2022-11-22T06:00:31.763Z,8.50
2022-11-22T06:03:05.032Z,8.53
2022-11-22T06:05:34.311Z,9.80
2022-11-22T06:08:04.409Z,11.50
2022-11-22T06:10:34.368Z,8.23
2022-11-22T06:13:02.720Z,10.53
2022-11-22T06:15:31.804Z,10.03
2022-11-22T06:18:00.045Z,11.60
2022-11-22T06:20:28.564Z,10.43
2022-11-22T06:22:59.956Z,10.73
2022-11-22T06:25:29.810Z,12.17
2022-11-22T06:28:00.688Z,10.90
2022-11-22T06:30:29.002Z,12.37
2022-11-22T06:32:59.054Z,12.93
2022-11-22T06:35:27.357Z,11.33
2022-11-22T06:38:00.524Z,16.23
2022-11-22T06:40:30.601Z,13.80
2022-11-22T06:42:58.885Z,12.83
2022-11-22T06:45:27.275Z,11.03
2022-11-22T06:47:55.878Z,12.47
2022-11-22T06:50:24.150Z,13.63
2022-11-22T06:52:52.826Z,13.47
2022-11-22T06:55:48.567Z,11.63
2022-11-22T06:58:10.948Z,12.73
2022-11-22T07:00:39.411Z,11.67
2022-11-22T07:03:07.713Z,8.27
2022-11-22T07:05:36.377Z,9.87
2022-11-22T07:08:11.978Z,10.60
2022-11-22T07:10:42.243Z,10.40
2022-11-22T07:13:13.398Z,14.30
2022-11-22T07:15:42.106Z,13.47
2022-11-22T07:18:10.807Z,12.47
2022-11-22T07:20:39.132Z,15.70
2022-11-22T07:23:07.417Z,12.07
2022-11-22T07:25:35.776Z,13.73
2022-11-22T07:28:04.058Z,11.10
2022-11-22T07:30:33.704Z,11.10
2022-11-22T07:33:01.951Z,12.33
2022-11-22T07:35:30.859Z,12.77
2022-11-22T07:37:59.228Z,12.30
2022-11-22T07:40:27.649Z,14.17
2022-11-22T07:42:58.625Z,12.67
2022-11-22T07:45:27.749Z,11.37
2022-11-22T07:48:00.490Z,12.57
2022-11-22T07:50:29.667Z,14.60
2022-11-22T07:52:58.308Z,14.70
2022-11-22T07:55:27.740Z,20.20
2022-11-22T07:57:59.376Z,15.70
2022-11-22T08:00:29.581Z,14.77
2022-11-22T08:02:59.476Z,12.67
2022-11-22T08:05:28.275Z,20.57
2022-11-22T08:07:56.675Z,16.77
2022-11-22T08:10:25.017Z,18.00
2022-11-22T08:12:53.307Z,20.63
2022-11-22T08:15:22.065Z,17.83
2022-11-22T08:17:50.332Z,16.73
2022-11-22T08:20:20.148Z,16.17
2022-11-22T08:22:48.531Z,18.27
2022-11-22T08:25:17.020Z,18.57
2022-11-22T08:27:45.427Z,15.40
2022-11-22T08:30:14.670Z,19.17
2022-11-22T08:32:43.354Z,18.33
2022-11-22T08:35:11.722Z,19.23
2022-11-22T08:37:41.408Z,19.50
2022-11-22T08:40:11.262Z,16.77
2022-11-22T08:42:39.768Z,19.83
2022-11-22T08:45:09.382Z,21.63
2022-11-22T08:47:38.932Z,19.30
2022-11-22T08:50:09.479Z,21.37
2022-11-22T08:52:38.143Z,17.70
2022-11-22T08:55:09.748Z,15.77
2022-11-22T08:57:38.102Z,17.90
2022-11-22T09:00:08.047Z,17.57
2022-11-22T09:02:36.427Z,15.67
2022-11-22T09:05:05.348Z,18.20
2022-11-22T09:10:23.709Z,17.77
2022-11-22T09:12:52.509Z,27.87
2022-11-22T09:15:20.897Z,19.17
2022-11-22T09:17:49.241Z,17.67
2022-11-22T09:20:18.245Z,15.73
2022-11-22T09:22:46.583Z,16.43
2022-11-22T09:25:14.950Z,15.13
2022-11-22T09:27:44.665Z,15.20
2022-11-22T09:30:13.840Z,16.50
2022-11-22T09:32:44.817Z,18.47
2022-11-22T09:35:13.158Z,17.13
2022-11-22T09:37:41.477Z,18.07
2022-11-22T09:40:11.879Z,18.13
2022-11-22T09:43:06.451Z,18.43
2022-11-22T09:46:09.522Z,16.30
2022-11-22T09:49:01.125Z,18.20
2022-11-22T09:51:38.451Z,15.40
2022-11-22T09:54:12.050Z,18.43
2022-11-22T09:56:42.348Z,15.20
2022-11-22T09:59:20.825Z,15.73
2022-11-22T10:01:56.354Z,14.90
2022-11-22T10:04:30.816Z,15.73
2022-11-22T10:07:02.791Z,15.97
2022-11-22T10:09:41.077Z,15.63
2022-11-22T10:12:18.776Z,15.40
2022-11-22T10:14:59.840Z,15.43
2022-11-22T10:17:42.830Z,13.80
2022-11-22T10:20:17.329Z,13.97
2022-11-22T10:22:46.184Z,15.97
2022-11-22T10:25:21.520Z,14.37
2022-11-22T10:27:59.065Z,15.70
2022-11-22T10:30:40.489Z,14.57
2022-11-22T10:33:19.426Z,16.00
2022-11-22T10:36:08.609Z,14.93
2022-11-22T10:38:54.779Z,16.03
2022-11-22T10:41:45.543Z,14.90
2022-11-22T10:44:25.727Z,14.37
2022-11-22T10:47:12.028Z,18.37
2022-11-22T10:49:57.204Z,16.77
2022-11-22T10:52:38.923Z,15.17
2022-11-22T10:55:24.531Z,13.57
2022-11-22T10:58:07.537Z,14.60
2022-11-22T11:00:41.894Z,14.47
2022-11-22T11:03:31.144Z,15.93
2022-11-22T11:06:24.307Z,14.70
2022-11-22T11:09:55.010Z,15.13
2022-11-22T11:11:53.726Z,15.37
2022-11-22T11:14:32.309Z,11.47
2022-11-22T11:17:02.611Z,13.90
2022-11-22T11:19:40.177Z,14.10
2022-11-22T11:22:42.826Z,15.23
2022-11-22T11:25:31.831Z,14.10
2022-11-22T11:28:06.701Z,12.43
2022-11-22T11:30:41.708Z,21.47
2022-11-22T11:33:26.895Z,14.50
2022-11-22T11:36:04.439Z,14.87
2022-11-22T11:38:39.005Z,13.33
2022-11-22T11:41:29.011Z,14.70
2022-11-22T11:43:59.377Z,16.30
2022-11-22T11:46:30.031Z,14.97
2022-11-22T11:49:12.611Z,15.57
2022-11-22T11:51:45.016Z,17.03
2022-11-22T11:54:19.836Z,15.87
2022-11-22T11:56:51.923Z,17.43
2022-11-22T11:59:23.102Z,14.50
2022-11-22T12:02:03.618Z,16.20
2022-11-22T12:04:36.908Z,12.77
2022-11-22T12:07:20.405Z,12.13
2022-11-22T12:09:51.620Z,12.53
2022-11-22T12:12:43.486Z,13.40
2022-11-22T12:15:22.257Z,15.57
2022-11-22T12:18:01.402Z,14.53
2022-11-22T12:20:43.408Z,18.17
2022-11-22T12:23:25.544Z,15.20
2022-11-22T12:25:57.486Z,14.57
2022-11-22T12:28:29.045Z,22.00
2022-11-22T12:31:04.509Z,14.53
2022-11-22T12:33:37.538Z,12.83
2022-11-22T12:36:13.906Z,18.83
2022-11-22T12:38:48.688Z,12.70
2022-11-22T12:41:21.558Z,14.90
2022-11-22T12:43:55.934Z,13.63
2022-11-22T12:46:30.652Z,13.40
2022-11-22T12:49:06.034Z,15.23
2022-11-22T12:51:46.380Z,15.93
2022-11-22T12:54:22.699Z,16.57
2022-11-22T12:56:57.439Z,16.80
2022-11-22T12:59:37.248Z,17.60
2022-11-22T13:02:20.731Z,15.40
2022-11-22T13:04:59.379Z,14.50
2022-11-22T13:07:49.684Z,16.13
2022-11-22T13:10:33.007Z,13.47
2022-11-22T13:13:05.708Z,20.87
2022-11-22T13:15:40.639Z,11.83
2022-11-22T13:18:12.649Z,11.83
2022-11-22T13:20:50.991Z,10.40
2022-11-22T13:23:50.045Z,9.53
2022-11-22T13:26:31.592Z,11.20
2022-11-22T13:29:20.380Z,11.67
2022-11-22T13:32:17.179Z,10.87
2022-11-22T13:35:08.665Z,12.60
2022-11-22T13:37:42.350Z,9.80
2022-11-22T13:40:24.440Z,10.47
2022-11-22T13:43:26.095Z,7.90
2022-11-22T13:45:58.620Z,9.13
2022-11-22T13:49:08.520Z,8.03
2022-11-22T13:51:56.397Z,10.27
2022-11-22T13:54:59.056Z,9.43
2022-11-22T13:57:37.191Z,11.63
2022-11-22T14:00:41.658Z,14.50
2022-11-22T14:03:38.083Z,14.27
2022-11-22T14:06:31.108Z,13.63
2022-11-22T14:09:41.452Z,10.17
2022-11-22T14:12:34.501Z,13.33
2022-11-22T14:15:40.531Z,44.23
2022-11-22T14:18:40.731Z,14.67
2022-11-22T14:21:18.652Z,20.20
2022-11-22T14:24:07.296Z,15.83
2022-11-22T14:26:52.049Z,12.80
2022-11-22T14:29:56.939Z,52.47
2022-11-22T14:32:27.513Z,50.30
2022-11-22T14:35:29.598Z,41.93
2022-11-22T14:38:28.969Z,43.07
2022-11-22T14:41:31.989Z,27.30
2022-11-22T14:44:03.328Z,17.73
2022-11-22T14:46:53.361Z,14.47
2022-11-22T14:49:36.011Z,14.13
2022-11-22T14:52:21.066Z,11.70
2022-11-22T14:54:55.397Z,9.57
2022-11-22T14:57:26.745Z,14.93
2022-11-22T15:00:17.881Z,10.57
2022-11-22T15:03:30.324Z,9.17
2022-11-22T15:09:23.873Z,7.37
2022-11-22T15:10:04.109Z,9.20
2022-11-22T15:13:06.898Z,12.87
2022-11-22T15:57:31.163Z,6.97
2022-11-22T16:00:01.050Z,11.33
2022-11-22T16:02:33.113Z,6.63
2022-11-22T16:06:05.265Z,9.80
2022-11-22T16:07:53.456Z,8.83
2022-11-22T16:10:33.020Z,7.07
2022-11-22T16:13:15.217Z,9.10
2022-11-22T16:15:43.695Z,7.00
2022-11-22T16:18:18.806Z,8.13
2022-11-22T16:21:01.553Z,10.40
2022-11-22T16:23:33.236Z,10.27
2022-11-22T16:26:19.242Z,9.07
2022-11-22T16:28:51.547Z,6.63
2022-11-22T16:31:24.590Z,8.47
2022-11-22T16:33:55.075Z,7.03
2022-11-22T16:36:25.376Z,9.77
2022-11-22T16:38:54.007Z,10.00
2022-11-22T16:41:25.610Z,7.50
2022-11-22T16:43:57.687Z,7.13
2022-11-22T16:46:26.341Z,8.03
2022-11-22T16:48:56.014Z,10.57
2022-11-22T16:51:28.470Z,9.47
2022-11-22T16:54:06.340Z,12.23
2022-11-22T16:56:35.036Z,9.07
2022-11-22T16:59:11.100Z,14.53
2022-11-22T17:01:43.468Z,11.93
2022-11-22T17:04:22.831Z,10.63
2022-11-22T17:06:51.801Z,15.10
2022-11-22T17:09:21.004Z,13.67
2022-11-22T17:11:50.410Z,15.07
2022-11-22T17:14:20.787Z,14.37
2022-11-22T17:16:49.449Z,19.27
2022-11-22T17:19:51.590Z,13.90
2022-11-22T17:22:07.064Z,14.20
2022-11-22T17:24:36.080Z,12.97
2022-11-22T17:27:04.739Z,10.67
2022-11-22T17:29:49.975Z,12.90
2022-11-22T17:32:19.254Z,12.90
2022-11-22T17:34:47.585Z,11.23
2022-11-22T17:37:15.974Z,18.43
2022-11-22T17:39:44.634Z,10.97
2022-11-22T17:42:15.223Z,11.83
2022-11-22T17:44:45.249Z,14.10
2022-11-22T17:47:13.577Z,9.93
2022-11-22T17:49:42.005Z,11.60
2022-11-22T17:52:10.388Z,11.40
2022-11-22T17:54:38.901Z,14.30
2022-11-22T17:57:07.186Z,13.30
2022-11-22T17:59:35.596Z,9.83
2022-11-22T18:02:05.330Z,11.63
2022-11-22T18:04:33.895Z,18.77
2022-11-22T18:07:02.832Z,21.63
2022-11-22T18:09:31.597Z,29.17
2022-11-22T18:12:00.121Z,34.93
2022-11-22T18:14:30.611Z,53.03
2022-11-22T18:17:00.423Z,43.63
2022-11-22T18:19:30.441Z,41.77
2022-11-22T18:21:59.000Z,33.67
2022-11-22T18:24:27.306Z,27.57
2022-11-22T18:26:55.909Z,27.50
2022-11-22T18:29:42.514Z,28.37
2022-11-22T18:32:12.352Z,29.00
2022-11-22T18:34:42.615Z,27.50
2022-11-22T18:37:10.971Z,26.33
2022-11-22T18:39:40.525Z,23.97
2022-11-22T18:42:13.517Z,21.50
2022-11-22T18:44:42.356Z,23.57
2022-11-22T18:47:10.875Z,23.93
2022-11-22T18:49:39.210Z,16.90
2022-11-22T18:52:10.782Z,21.13
2022-11-22T18:54:42.532Z,21.87
2022-11-22T18:57:10.944Z,22.53
2022-11-22T18:59:39.793Z,21.77
2022-11-22T19:02:08.345Z,24.90
2022-11-22T19:04:36.644Z,33.33
2022-11-22T19:07:05.696Z,25.27
2022-11-22T19:09:35.424Z,18.67
2022-11-22T19:12:03.855Z,12.87
2022-11-22T19:14:32.461Z,9.37
2022-11-22T19:17:01.430Z,10.50
2022-11-22T19:19:32.293Z,10.30
2022-11-22T19:22:01.513Z,10.30
2022-11-22T19:24:30.746Z,9.90
2022-11-22T19:27:01.086Z,9.50
2022-11-22T19:29:29.996Z,9.77
2022-11-22T19:31:58.943Z,9.93
2022-11-22T19:34:29.434Z,8.57
2022-11-22T19:37:00.218Z,10.60
2022-11-22T19:39:29.545Z,10.73
2022-11-22T19:41:58.375Z,9.53
2022-11-22T19:44:28.214Z,9.47
2022-11-22T19:46:56.599Z,10.70
2022-11-22T19:49:25.452Z,10.60
2022-11-22T19:51:53.890Z,13.10
2022-11-22T19:54:22.276Z,11.07
2022-11-22T19:56:50.747Z,13.57
2022-11-22T19:59:19.116Z,11.90
2022-11-22T20:01:48.911Z,12.50
2022-11-22T20:04:17.384Z,11.87
2022-11-22T20:06:49.965Z,16.93
2022-11-22T20:09:18.741Z,15.83
2022-11-22T20:11:47.069Z,13.77
2022-11-22T20:14:15.809Z,11.20
2022-11-22T20:16:44.508Z,13.40
2022-11-22T20:19:15.360Z,13.77
2022-11-22T20:21:43.986Z,16.40
2022-11-22T20:24:14.158Z,10.70
2022-11-22T20:26:43.803Z,10.93
2022-11-22T20:29:15.185Z,11.57
2022-11-22T20:31:43.826Z,22.67
2022-11-22T20:34:15.089Z,15.63
2022-11-22T20:36:43.811Z,10.57
2022-11-22T20:39:12.329Z,12.30
2022-11-22T20:41:41.378Z,12.00
2022-11-22T20:44:13.759Z,12.10
2022-11-22T20:46:42.595Z,9.53
2022-11-22T20:49:11.446Z,9.20
2022-11-22T20:51:42.282Z,10.40
2022-11-22T20:54:12.045Z,11.50
2022-11-22T20:56:41.028Z,10.87
2022-11-22T20:59:09.672Z,9.67
2022-11-22T21:01:38.347Z,12.93
2022-11-22T21:04:07.551Z,15.43
2022-11-22T21:06:36.002Z,14.73
2022-11-22T21:09:05.787Z,14.27
2022-11-22T21:11:35.138Z,17.67
2022-11-22T21:14:03.872Z,18.27
2022-11-22T21:16:32.696Z,14.33
2022-11-22T21:19:04.966Z,13.33
2022-11-22T21:21:36.501Z,13.83
2022-11-22T21:24:08.537Z,13.20
2022-11-22T21:26:37.055Z,21.13
2022-11-22T21:29:15.978Z,19.37
2022-11-22T21:31:45.162Z,16.33
2022-11-22T21:34:13.878Z,10.20
2022-11-22T21:36:42.233Z,13.97
2022-11-22T21:39:11.859Z,12.67
2022-11-22T21:41:41.029Z,12.87
2022-11-22T21:44:11.078Z,11.00
2022-11-22T21:46:40.051Z,11.27
2022-11-22T21:49:08.904Z,15.83
2022-11-22T21:51:37.609Z,14.60
2022-11-22T21:54:06.605Z,20.00
2022-11-22T21:56:36.993Z,18.07
2022-11-22T21:59:05.864Z,13.67
2022-11-22T22:01:35.225Z,10.90
2022-11-22T22:04:04.437Z,11.77
2022-11-22T22:06:33.141Z,10.27
2022-11-22T22:09:01.943Z,9.60
2022-11-22T22:11:30.274Z,10.57
2022-11-22T22:13:59.979Z,13.40
2022-11-22T22:16:28.323Z,9.90
2022-11-22T22:18:56.645Z,11.30
2022-11-22T22:21:25.265Z,10.10
2022-11-22T22:23:54.457Z,11.40
2022-11-22T22:26:22.739Z,12.83
2022-11-22T22:28:53.061Z,9.17
2022-11-22T22:31:26.912Z,11.70
2022-11-22T22:33:57.644Z,15.00
2022-11-22T22:36:28.374Z,11.37
2022-11-22T22:38:56.784Z,9.90
2022-11-22T22:41:25.089Z,7.63
2022-11-22T22:43:53.724Z,9.47
2022-11-22T22:46:25.794Z,9.03
2022-11-22T22:48:56.203Z,9.60
2022-11-22T22:51:32.375Z,10.17
2022-11-22T22:54:02.630Z,11.13
2022-11-22T22:56:32.334Z,7.67
2022-11-22T22:59:01.616Z,10.00
2022-11-22T23:01:32.596Z,7.43
2022-11-22T23:04:02.967Z,11.00
2022-11-22T23:06:34.274Z,8.37
2022-11-22T23:09:04.111Z,7.87
2022-11-22T23:11:53.003Z,8.47
2022-11-22T23:14:24.691Z,8.70
2022-11-22T23:16:57.925Z,12.60
2022-11-22T23:19:28.070Z,11.00
2022-11-22T23:21:57.315Z,14.97
2022-11-22T23:24:25.687Z,11.77
2022-11-22T23:26:54.005Z,10.33
2022-11-22T23:29:22.683Z,10.00
2022-11-22T23:31:51.298Z,8.97
2022-11-22T23:34:21.026Z,12.23
2022-11-22T23:36:49.739Z,9.67
2022-11-22T23:39:18.060Z,14.30
2022-11-22T23:41:46.445Z,13.60
2022-11-22T23:44:15.141Z,15.83
2022-11-22T23:46:43.784Z,16.77
2022-11-22T23:49:13.131Z,16.60
2022-11-22T23:51:42.874Z,18.10
2022-11-22T23:54:12.053Z,12.53
2022-11-22T23:56:40.335Z,13.50
2022-11-22T23:59:08.786Z,10.40
